sensor_id;sensor_type;location;lat;lon;timestamp;temperature;humidity
7936;DHT22;4013;49.744;8.118;2023-06-10T00:01:47;19.90;99.90
7936;DHT22;4013;49.744;8.118;2023-06-10T00:04:15;19.80;99.90
7936;DHT22;4013;49.744;8.118;2023-06-10T00:06:42;19.80;99.90
7936;DHT22;4013;49.744;8.118;2023-06-10T00:09:09;19.70;99.90
7936;DHT22;4013;49.744;8.118;2023-06-10T00:11:37;19.80;99.90
7936;DHT22;4013;49.744;8.118;2023-06-10T00:14:04;19.80;99.90
7936;DHT22;4013;49.744;8.118;2023-06-10T00:16:31;19.80;99.90
7936;DHT22;4013;49.744;8.118;2023-06-10T00:19:00;19.80;99.90
7936;DHT22;4013;49.744;8.118;2023-06-10T00:21:28;19.90;99.90
7936;DHT22;4013;49.744;8.118;2023-06-10T00:23:56;19.80;99.90
7936;DHT22;4013;49.744;8.118;2023-06-10T00:26:23;19.80;99.90
7936;DHT22;4013;49.744;8.118;2023-06-10T00:28:51;19.80;99.90
7936;DHT22;4013;49.744;8.118;2023-06-10T00:31:18;19.70;99.90
7936;DHT22;4013;49.744;8.118;2023-06-10T00:33:45;19.70;99.90
7936;DHT22;4013;49.744;8.118;2023-06-10T00:36:14;19.80;99.90
7936;DHT22;4013;49.744;8.118;2023-06-10T00:38:41;19.90;99.90
7936;DHT22;4013;49.744;8.118;2023-06-10T00:41:08;19.90;99.90
7936;DHT22;4013;49.744;8.118;2023-06-10T00:43:35;19.80;99.90
7936;DHT22;4013;49.744;8.118;2023-06-10T00:46:02;19.80;99.90
7936;DHT22;4013;49.744;8.118;2023-06-10T00:48:29;19.80;99.90
7936;DHT22;4013;49.744;8.118;2023-06-10T00:50:56;19.80;99.90
7936;DHT22;4013;49.744;8.118;2023-06-10T00:53:25;19.70;99.90
7936;DHT22;4013;49.744;8.118;2023-06-10T00:55:52;19.70;99.90
7936;DHT22;4013;49.744;8.118;2023-06-10T00:58:19;19.60;99.90
7936;DHT22;4013;49.744;8.118;2023-06-10T01:00:46;19.60;99.90
7936;DHT22;4013;49.744;8.118;2023-06-10T01:03:13;19.50;99.90
7936;DHT22;4013;49.744;8.118;2023-06-10T01:05:43;19.60;99.90
7936;DHT22;4013;49.744;8.118;2023-06-10T01:08:16;19.50;99.90
7936;DHT22;4013;49.744;8.118;2023-06-10T01:10:51;19.50;99.90
7936;DHT22;4013;49.744;8.118;2023-06-10T01:13:21;19.40;99.90
7936;DHT22;4013;49.744;8.118;2023-06-10T01:15:50;19.40;99.90
7936;DHT22;4013;49.744;8.118;2023-06-10T01:18:18;19.30;99.90
7936;DHT22;4013;49.744;8.118;2023-06-10T01:20:45;19.30;99.90
7936;DHT22;4013;49.744;8.118;2023-06-10T01:23:15;19.30;99.90
7936;DHT22;4013;49.744;8.118;2023-06-10T01:25:47;19.30;99.90
7936;DHT22;4013;49.744;8.118;2023-06-10T01:28:21;19.30;99.90
7936;DHT22;4013;49.744;8.118;2023-06-10T01:30:55;19.20;99.90
7936;DHT22;4013;49.744;8.118;2023-06-10T01:33:28;19.30;99.90
7936;DHT22;4013;49.744;8.118;2023-06-10T01:35:56;19.20;99.90
7936;DHT22;4013;49.744;8.118;2023-06-10T01:38:26;19.30;99.90
7936;DHT22;4013;49.744;8.118;2023-06-10T01:40:55;19.30;99.90
7936;DHT22;4013;49.744;8.118;2023-06-10T01:43:23;19.30;99.90
7936;DHT22;4013;49.744;8.118;2023-06-10T01:45:50;19.20;99.90
7936;DHT22;4013;49.744;8.118;2023-06-10T01:48:17;19.10;99.90
7936;DHT22;4013;49.744;8.118;2023-06-10T01:50:44;19.20;99.90
7936;DHT22;4013;49.744;8.118;2023-06-10T01:53:11;19.00;99.90
7936;DHT22;4013;49.744;8.118;2023-06-10T01:55:39;18.90;99.90
7936;DHT22;4013;49.744;8.118;2023-06-10T01:58:06;18.80;99.90
7936;DHT22;4013;49.744;8.118;2023-06-10T02:00:33;18.80;99.90
7936;DHT22;4013;49.744;8.118;2023-06-10T02:03:00;18.80;99.90
7936;DHT22;4013;49.744;8.118;2023-06-10T02:05:27;18.80;99.90
7936;DHT22;4013;49.744;8.118;2023-06-10T02:07:54;18.70;99.90
7936;DHT22;4013;49.744;8.118;2023-06-10T02:10:21;18.70;99.90
7936;DHT22;4013;49.744;8.118;2023-06-10T02:12:49;18.70;99.90
7936;DHT22;4013;49.744;8.118;2023-06-10T02:15:16;18.80;99.90
7936;DHT22;4013;49.744;8.118;2023-06-10T02:17:43;18.80;99.90
7936;DHT22;4013;49.744;8.118;2023-06-10T02:20:11;18.60;99.90
7936;DHT22;4013;49.744;8.118;2023-06-10T02:22:39;18.60;99.90
7936;DHT22;4013;49.744;8.118;2023-06-10T02:25:07;18.60;99.90
7936;DHT22;4013;49.744;8.118;2023-06-10T02:27:34;18.60;99.90
7936;DHT22;4013;49.744;8.118;2023-06-10T02:30:03;18.50;99.90
7936;DHT22;4013;49.744;8.118;2023-06-10T02:32:30;18.40;99.90
7936;DHT22;4013;49.744;8.118;2023-06-10T02:34:57;18.20;99.90
7936;DHT22;4013;49.744;8.118;2023-06-10T02:37:26;18.20;99.90
7936;DHT22;4013;49.744;8.118;2023-06-10T02:39:53;18.00;99.90
7936;DHT22;4013;49.744;8.118;2023-06-10T02:42:20;17.90;99.90
7936;DHT22;4013;49.744;8.118;2023-06-10T02:44:47;18.10;99.90
7936;DHT22;4013;49.744;8.118;2023-06-10T02:47:15;18.10;99.90
7936;DHT22;4013;49.744;8.118;2023-06-10T02:49:42;17.90;99.90
7936;DHT22;4013;49.744;8.118;2023-06-10T02:52:09;17.90;99.90
7936;DHT22;4013;49.744;8.118;2023-06-10T02:54:37;17.90;99.90
7936;DHT22;4013;49.744;8.118;2023-06-10T02:57:04;17.90;99.90
7936;DHT22;4013;49.744;8.118;2023-06-10T02:59:31;17.80;99.90
7936;DHT22;4013;49.744;8.118;2023-06-10T03:01:58;17.80;99.90
7936;DHT22;4013;49.744;8.118;2023-06-10T03:04:28;17.80;99.90
7936;DHT22;4013;49.744;8.118;2023-06-10T03:06:56;17.70;99.90
7936;DHT22;4013;49.744;8.118;2023-06-10T03:09:23;17.60;99.90
7936;DHT22;4013;49.744;8.118;2023-06-10T03:11:50;17.60;99.90
7936;DHT22;4013;49.744;8.118;2023-06-10T03:14:17;17.50;99.90
7936;DHT22;4013;49.744;8.118;2023-06-10T03:16:44;17.60;99.90
7936;DHT22;4013;49.744;8.118;2023-06-10T03:19:11;17.60;99.90
7936;DHT22;4013;49.744;8.118;2023-06-10T03:21:43;17.50;99.90
7936;DHT22;4013;49.744;8.118;2023-06-10T03:24:10;17.50;99.90
7936;DHT22;4013;49.744;8.118;2023-06-10T03:26:38;17.40;99.90
7936;DHT22;4013;49.744;8.118;2023-06-10T03:29:05;17.30;99.90
7936;DHT22;4013;49.744;8.118;2023-06-10T03:31:31;17.20;99.90
7936;DHT22;4013;49.744;8.118;2023-06-10T03:33:58;17.20;99.90
7936;DHT22;4013;49.744;8.118;2023-06-10T03:36:25;17.10;99.90
7936;DHT22;4013;49.744;8.118;2023-06-10T03:38:55;17.00;99.90
7936;DHT22;4013;49.744;8.118;2023-06-10T03:41:23;16.90;99.90
7936;DHT22;4013;49.744;8.118;2023-06-10T03:43:51;16.80;99.90
7936;DHT22;4013;49.744;8.118;2023-06-10T03:46:18;16.80;99.90
7936;DHT22;4013;49.744;8.118;2023-06-10T03:48:45;16.70;99.90
7936;DHT22;4013;49.744;8.118;2023-06-10T03:51:14;16.70;99.90
7936;DHT22;4013;49.744;8.118;2023-06-10T03:53:40;16.80;99.90
7936;DHT22;4013;49.744;8.118;2023-06-10T03:56:09;16.80;99.90
7936;DHT22;4013;49.744;8.118;2023-06-10T03:58:36;16.80;99.90
7936;DHT22;4013;49.744;8.118;2023-06-10T04:01:03;16.80;99.90
7936;DHT22;4013;49.744;8.118;2023-06-10T04:03:29;16.90;99.90
7936;DHT22;4013;49.744;8.118;2023-06-10T04:05:57;17.00;99.90
7936;DHT22;4013;49.744;8.118;2023-06-10T04:08:24;17.00;99.90
7936;DHT22;4013;49.744;8.118;2023-06-10T04:10:51;17.00;99.90
7936;DHT22;4013;49.744;8.118;2023-06-10T04:13:19;17.10;99.90
7936;DHT22;4013;49.744;8.118;2023-06-10T04:15:46;17.10;99.90
7936;DHT22;4013;49.744;8.118;2023-06-10T04:18:13;17.20;99.90
7936;DHT22;4013;49.744;8.118;2023-06-10T04:20:40;17.30;99.90
7936;DHT22;4013;49.744;8.118;2023-06-10T04:23:07;17.50;99.90
7936;DHT22;4013;49.744;8.118;2023-06-10T04:25:34;17.60;99.90
7936;DHT22;4013;49.744;8.118;2023-06-10T04:28:01;17.80;99.90
7936;DHT22;4013;49.744;8.118;2023-06-10T04:30:29;17.80;99.90
7936;DHT22;4013;49.744;8.118;2023-06-10T04:32:57;17.90;99.90
7936;DHT22;4013;49.744;8.118;2023-06-10T04:35:24;18.00;99.90
7936;DHT22;4013;49.744;8.118;2023-06-10T04:37:52;18.30;99.90
7936;DHT22;4013;49.744;8.118;2023-06-10T04:40:19;18.60;99.90
7936;DHT22;4013;49.744;8.118;2023-06-10T04:42:46;18.60;99.90
7936;DHT22;4013;49.744;8.118;2023-06-10T04:45:13;18.60;99.90
7936;DHT22;4013;49.744;8.118;2023-06-10T04:47:41;18.60;99.90
7936;DHT22;4013;49.744;8.118;2023-06-10T04:50:09;18.60;99.90
7936;DHT22;4013;49.744;8.118;2023-06-10T04:52:36;18.60;99.90
7936;DHT22;4013;49.744;8.118;2023-06-10T04:55:04;18.60;99.90
7936;DHT22;4013;49.744;8.118;2023-06-10T04:57:31;18.60;99.90
7936;DHT22;4013;49.744;8.118;2023-06-10T04:59:58;18.70;99.90
7936;DHT22;4013;49.744;8.118;2023-06-10T05:02:25;18.90;99.90
7936;DHT22;4013;49.744;8.118;2023-06-10T05:04:53;19.20;99.90
7936;DHT22;4013;49.744;8.118;2023-06-10T05:07:20;19.50;99.90
7936;DHT22;4013;49.744;8.118;2023-06-10T05:09:47;19.70;99.90
7936;DHT22;4013;49.744;8.118;2023-06-10T05:12:14;19.90;99.90
7936;DHT22;4013;49.744;8.118;2023-06-10T05:14:41;20.00;99.90
7936;DHT22;4013;49.744;8.118;2023-06-10T05:17:08;20.10;99.90
7936;DHT22;4013;49.744;8.118;2023-06-10T05:19:35;20.20;99.90
7936;DHT22;4013;49.744;8.118;2023-06-10T05:22:04;20.10;99.90
7936;DHT22;4013;49.744;8.118;2023-06-10T05:24:31;20.40;99.90
7936;DHT22;4013;49.744;8.118;2023-06-10T05:26:58;20.40;99.90
7936;DHT22;4013;49.744;8.118;2023-06-10T05:29:26;20.40;99.90
7936;DHT22;4013;49.744;8.118;2023-06-10T05:31:53;20.40;99.90
7936;DHT22;4013;49.744;8.118;2023-06-10T05:34:22;20.40;99.90
7936;DHT22;4013;49.744;8.118;2023-06-10T05:36:49;20.50;99.90
7936;DHT22;4013;49.744;8.118;2023-06-10T05:39:17;20.60;99.90
7936;DHT22;4013;49.744;8.118;2023-06-10T05:41:45;20.60;99.90
7936;DHT22;4013;49.744;8.118;2023-06-10T05:44:12;20.60;99.90
7936;DHT22;4013;49.744;8.118;2023-06-10T05:46:39;20.60;99.90
7936;DHT22;4013;49.744;8.118;2023-06-10T05:49:06;20.60;99.90
7936;DHT22;4013;49.744;8.118;2023-06-10T05:51:33;20.70;99.90
7936;DHT22;4013;49.744;8.118;2023-06-10T05:54:01;20.80;99.90
7936;DHT22;4013;49.744;8.118;2023-06-10T05:56:29;20.90;99.90
7936;DHT22;4013;49.744;8.118;2023-06-10T05:58:56;20.90;99.90
7936;DHT22;4013;49.744;8.118;2023-06-10T06:01:23;21.00;99.90
7936;DHT22;4013;49.744;8.118;2023-06-10T06:03:50;21.10;99.90
7936;DHT22;4013;49.744;8.118;2023-06-10T06:06:17;21.20;99.90
7936;DHT22;4013;49.744;8.118;2023-06-10T06:08:46;21.30;99.90
7936;DHT22;4013;49.744;8.118;2023-06-10T06:11:13;21.40;99.90
7936;DHT22;4013;49.744;8.118;2023-06-10T06:13:41;21.50;99.90
7936;DHT22;4013;49.744;8.118;2023-06-10T06:16:08;21.40;99.90
7936;DHT22;4013;49.744;8.118;2023-06-10T06:18:35;21.40;99.90
7936;DHT22;4013;49.744;8.118;2023-06-10T06:21:02;21.60;99.90
7936;DHT22;4013;49.744;8.118;2023-06-10T06:23:29;21.70;99.90
7936;DHT22;4013;49.744;8.118;2023-06-10T06:25:57;21.80;99.90
7936;DHT22;4013;49.744;8.118;2023-06-10T06:28:23;21.80;99.90
7936;DHT22;4013;49.744;8.118;2023-06-10T06:30:56;22.00;99.90
7936;DHT22;4013;49.744;8.118;2023-06-10T06:33:22;22.20;99.90
7936;DHT22;4013;49.744;8.118;2023-06-10T06:35:51;22.30;99.90
7936;DHT22;4013;49.744;8.118;2023-06-10T06:38:18;22.30;99.90
7936;DHT22;4013;49.744;8.118;2023-06-10T06:40:46;22.50;99.90
7936;DHT22;4013;49.744;8.118;2023-06-10T06:43:13;22.70;99.90
7936;DHT22;4013;49.744;8.118;2023-06-10T06:45:40;22.70;99.90
7936;DHT22;4013;49.744;8.118;2023-06-10T06:48:08;22.70;99.90
7936;DHT22;4013;49.744;8.118;2023-06-10T06:50:35;22.70;99.90
7936;DHT22;4013;49.744;8.118;2023-06-10T06:53:02;22.80;99.90
7936;DHT22;4013;49.744;8.118;2023-06-10T06:55:29;22.90;99.90
7936;DHT22;4013;49.744;8.118;2023-06-10T06:57:56;23.00;99.90
7936;DHT22;4013;49.744;8.118;2023-06-10T07:00:28;23.20;99.90
7936;DHT22;4013;49.744;8.118;2023-06-10T07:02:55;23.30;99.90
7936;DHT22;4013;49.744;8.118;2023-06-10T07:05:24;23.40;99.90
7936;DHT22;4013;49.744;8.118;2023-06-10T07:07:52;23.40;99.90
7936;DHT22;4013;49.744;8.118;2023-06-10T07:10:20;23.40;99.90
7936;DHT22;4013;49.744;8.118;2023-06-10T07:12:48;23.50;99.90
7936;DHT22;4013;49.744;8.118;2023-06-10T07:15:18;23.50;99.90
7936;DHT22;4013;49.744;8.118;2023-06-10T07:17:45;23.40;99.90
7936;DHT22;4013;49.744;8.118;2023-06-10T07:20:12;23.50;99.90
7936;DHT22;4013;49.744;8.118;2023-06-10T07:22:42;23.60;99.90
7936;DHT22;4013;49.744;8.118;2023-06-10T07:25:09;23.70;99.90
7936;DHT22;4013;49.744;8.118;2023-06-10T07:27:36;23.80;99.90
7936;DHT22;4013;49.744;8.118;2023-06-10T07:30:04;23.70;99.90
7936;DHT22;4013;49.744;8.118;2023-06-10T07:32:32;23.80;99.90
7936;DHT22;4013;49.744;8.118;2023-06-10T07:34:59;23.90;99.90
7936;DHT22;4013;49.744;8.118;2023-06-10T07:37:26;23.90;99.90
7936;DHT22;4013;49.744;8.118;2023-06-10T07:39:54;23.90;99.90
7936;DHT22;4013;49.744;8.118;2023-06-10T07:42:21;24.00;99.90
7936;DHT22;4013;49.744;8.118;2023-06-10T07:44:48;24.10;99.90
7936;DHT22;4013;49.744;8.118;2023-06-10T07:47:15;23.90;99.90
7936;DHT22;4013;49.744;8.118;2023-06-10T07:49:42;23.90;99.90
7936;DHT22;4013;49.744;8.118;2023-06-10T07:52:09;24.10;99.90
7936;DHT22;4013;49.744;8.118;2023-06-10T07:54:36;24.20;99.90
7936;DHT22;4013;49.744;8.118;2023-06-10T07:57:05;24.30;99.90
7936;DHT22;4013;49.744;8.118;2023-06-10T07:59:33;24.30;99.90
7936;DHT22;4013;49.744;8.118;2023-06-10T08:02:00;24.40;99.90
7936;DHT22;4013;49.744;8.118;2023-06-10T08:04:27;24.30;99.90
7936;DHT22;4013;49.744;8.118;2023-06-10T08:06:56;24.30;99.90
7936;DHT22;4013;49.744;8.118;2023-06-10T08:09:23;24.40;99.90
7936;DHT22;4013;49.744;8.118;2023-06-10T08:11:50;24.50;99.90
7936;DHT22;4013;49.744;8.118;2023-06-10T08:14:18;24.70;99.90
7936;DHT22;4013;49.744;8.118;2023-06-10T08:16:45;24.80;99.90
7936;DHT22;4013;49.744;8.118;2023-06-10T08:19:12;24.90;99.90
7936;DHT22;4013;49.744;8.118;2023-06-10T08:21:39;25.00;99.90
7936;DHT22;4013;49.744;8.118;2023-06-10T08:24:06;25.00;99.90
7936;DHT22;4013;49.744;8.118;2023-06-10T08:26:33;25.10;99.90
7936;DHT22;4013;49.744;8.118;2023-06-10T08:29:00;25.00;99.90
7936;DHT22;4013;49.744;8.118;2023-06-10T08:31:28;25.00;99.90
7936;DHT22;4013;49.744;8.118;2023-06-10T08:33:55;25.10;99.90
7936;DHT22;4013;49.744;8.118;2023-06-10T08:36:22;25.10;99.90
7936;DHT22;4013;49.744;8.118;2023-06-10T08:38:49;25.10;99.90
7936;DHT22;4013;49.744;8.118;2023-06-10T08:41:17;25.20;99.90
7936;DHT22;4013;49.744;8.118;2023-06-10T08:43:50;25.20;99.90
7936;DHT22;4013;49.744;8.118;2023-06-10T08:46:20;25.10;99.90
7936;DHT22;4013;49.744;8.118;2023-06-10T08:48:53;25.10;99.90
7936;DHT22;4013;49.744;8.118;2023-06-10T08:51:23;25.10;99.90
7936;DHT22;4013;49.744;8.118;2023-06-10T08:54:01;25.20;99.90
7936;DHT22;4013;49.744;8.118;2023-06-10T08:56:30;25.30;99.90
7936;DHT22;4013;49.744;8.118;2023-06-10T08:58:57;25.30;99.90
7936;DHT22;4013;49.744;8.118;2023-06-10T09:01:26;25.20;99.90
7936;DHT22;4013;49.744;8.118;2023-06-10T09:03:54;25.20;99.90
7936;DHT22;4013;49.744;8.118;2023-06-10T09:06:22;25.20;99.90
7936;DHT22;4013;49.744;8.118;2023-06-10T09:08:50;25.30;99.90
7936;DHT22;4013;49.744;8.118;2023-06-10T09:11:17;25.50;99.90
7936;DHT22;4013;49.744;8.118;2023-06-10T09:13:44;25.60;99.90
7936;DHT22;4013;49.744;8.118;2023-06-10T09:16:11;25.60;99.90
7936;DHT22;4013;49.744;8.118;2023-06-10T09:18:39;25.50;99.90
7936;DHT22;4013;49.744;8.118;2023-06-10T09:21:07;25.50;99.90
7936;DHT22;4013;49.744;8.118;2023-06-10T09:23:35;25.40;99.90
7936;DHT22;4013;49.744;8.118;2023-06-10T09:26:08;25.40;99.90
7936;DHT22;4013;49.744;8.118;2023-06-10T09:28:35;25.40;99.90
7936;DHT22;4013;49.744;8.118;2023-06-10T09:31:03;25.50;99.90
7936;DHT22;4013;49.744;8.118;2023-06-10T09:33:31;25.50;99.40
7936;DHT22;4013;49.744;8.118;2023-06-10T09:36:01;25.60;99.90
7936;DHT22;4013;49.744;8.118;2023-06-10T09:38:34;25.70;99.90
7936;DHT22;4013;49.744;8.118;2023-06-10T09:41:03;25.80;99.90
7936;DHT22;4013;49.744;8.118;2023-06-10T09:43:40;25.90;99.90
7936;DHT22;4013;49.744;8.118;2023-06-10T09:46:14;26.00;99.40
7936;DHT22;4013;49.744;8.118;2023-06-10T09:48:43;26.00;98.80
7936;DHT22;4013;49.744;8.118;2023-06-10T09:51:10;26.00;98.80
7936;DHT22;4013;49.744;8.118;2023-06-10T09:53:38;26.00;97.80
7936;DHT22;4013;49.744;8.118;2023-06-10T09:56:06;26.00;97.60
7936;DHT22;4013;49.744;8.118;2023-06-10T09:58:37;26.10;99.10
7936;DHT22;4013;49.744;8.118;2023-06-10T10:01:05;26.10;97.90
7936;DHT22;4013;49.744;8.118;2023-06-10T10:03:32;26.20;98.20
7936;DHT22;4013;49.744;8.118;2023-06-10T10:06:00;26.20;96.40
7936;DHT22;4013;49.744;8.118;2023-06-10T10:08:27;26.10;95.90
7936;DHT22;4013;49.744;8.118;2023-06-10T10:10:56;26.10;95.20
7936;DHT22;4013;49.744;8.118;2023-06-10T10:13:26;26.10;96.10
7936;DHT22;4013;49.744;8.118;2023-06-10T10:15:54;26.10;96.60
7936;DHT22;4013;49.744;8.118;2023-06-10T10:18:24;26.20;98.00
7936;DHT22;4013;49.744;8.118;2023-06-10T10:20:59;26.40;98.10
7936;DHT22;4013;49.744;8.118;2023-06-10T10:23:31;26.40;96.20
7936;DHT22;4013;49.744;8.118;2023-06-10T10:26:04;26.40;97.30
7936;DHT22;4013;49.744;8.118;2023-06-10T10:28:38;26.40;97.10
7936;DHT22;4013;49.744;8.118;2023-06-10T10:31:09;26.50;97.40
7936;DHT22;4013;49.744;8.118;2023-06-10T10:33:48;26.70;96.10
7936;DHT22;4013;49.744;8.118;2023-06-10T10:36:19;26.70;96.40
7936;DHT22;4013;49.744;8.118;2023-06-10T10:38:48;26.70;95.40
7936;DHT22;4013;49.744;8.118;2023-06-10T10:41:18;26.70;95.70
7936;DHT22;4013;49.744;8.118;2023-06-10T10:43:46;26.70;95.90
7936;DHT22;4013;49.744;8.118;2023-06-10T10:46:16;26.70;95.80
7936;DHT22;4013;49.744;8.118;2023-06-10T10:48:44;26.80;95.90
7936;DHT22;4013;49.744;8.118;2023-06-10T10:51:12;26.90;96.00
7936;DHT22;4013;49.744;8.118;2023-06-10T10:53:42;27.00;96.10
7936;DHT22;4013;49.744;8.118;2023-06-10T10:56:13;27.10;94.80
7936;DHT22;4013;49.744;8.118;2023-06-10T10:58:42;27.10;91.70
7936;DHT22;4013;49.744;8.118;2023-06-10T11:01:13;27.00;92.40
7936;DHT22;4013;49.744;8.118;2023-06-10T11:03:44;27.00;92.60
7936;DHT22;4013;49.744;8.118;2023-06-10T11:06:13;27.10;91.80
7936;DHT22;4013;49.744;8.118;2023-06-10T11:08:48;27.20;90.30
7936;DHT22;4013;49.744;8.118;2023-06-10T11:11:20;27.10;90.30
7936;DHT22;4013;49.744;8.118;2023-06-10T11:14:06;27.10;90.90
7936;DHT22;4013;49.744;8.118;2023-06-10T11:16:39;27.20;89.10
7936;DHT22;4013;49.744;8.118;2023-06-10T11:19:07;27.10;88.70
7936;DHT22;4013;49.744;8.118;2023-06-10T11:21:45;27.00;89.80
7936;DHT22;4013;49.744;8.118;2023-06-10T11:24:24;27.10;86.50
7936;DHT22;4013;49.744;8.118;2023-06-10T11:26:51;27.20;85.90
7936;DHT22;4013;49.744;8.118;2023-06-10T11:29:20;27.20;86.20
7936;DHT22;4013;49.744;8.118;2023-06-10T11:31:50;27.10;86.70
7936;DHT22;4013;49.744;8.118;2023-06-10T11:34:24;27.10;82.60
7936;DHT22;4013;49.744;8.118;2023-06-10T11:36:52;27.20;83.10
7936;DHT22;4013;49.744;8.118;2023-06-10T11:39:20;27.20;81.00
7936;DHT22;4013;49.744;8.118;2023-06-10T11:41:49;27.30;79.50
7936;DHT22;4013;49.744;8.118;2023-06-10T11:44:17;27.30;81.00
7936;DHT22;4013;49.744;8.118;2023-06-10T11:46:48;27.20;83.10
7936;DHT22;4013;49.744;8.118;2023-06-10T11:49:15;27.40;84.40
7936;DHT22;4013;49.744;8.118;2023-06-10T11:51:42;27.50;82.70
7936;DHT22;4013;49.744;8.118;2023-06-10T11:54:14;27.50;81.10
7936;DHT22;4013;49.744;8.118;2023-06-10T11:56:42;27.60;83.00
7936;DHT22;4013;49.744;8.118;2023-06-10T11:59:09;27.60;82.70
7936;DHT22;4013;49.744;8.118;2023-06-10T12:01:37;27.60;80.20
7936;DHT22;4013;49.744;8.118;2023-06-10T12:04:08;27.70;80.60
7936;DHT22;4013;49.744;8.118;2023-06-10T12:06:40;27.60;81.00
7936;DHT22;4013;49.744;8.118;2023-06-10T12:09:14;27.60;79.80
7936;DHT22;4013;49.744;8.118;2023-06-10T12:11:41;27.60;81.10
7936;DHT22;4013;49.744;8.118;2023-06-10T12:14:09;27.60;79.60
7936;DHT22;4013;49.744;8.118;2023-06-10T12:16:36;27.60;79.70
7936;DHT22;4013;49.744;8.118;2023-06-10T12:19:04;27.80;79.40
7936;DHT22;4013;49.744;8.118;2023-06-10T12:21:33;28.00;78.00
7936;DHT22;4013;49.744;8.118;2023-06-10T12:24:06;28.10;78.40
7936;DHT22;4013;49.744;8.118;2023-06-10T12:26:40;28.10;81.00
7936;DHT22;4013;49.744;8.118;2023-06-10T12:29:21;28.00;76.00
7936;DHT22;4013;49.744;8.118;2023-06-10T12:31:54;27.80;74.70
7936;DHT22;4013;49.744;8.118;2023-06-10T12:34:31;27.90;75.00
7936;DHT22;4013;49.744;8.118;2023-06-10T12:37:00;28.00;73.70
7936;DHT22;4013;49.744;8.118;2023-06-10T12:39:30;28.20;78.10
7936;DHT22;4013;49.744;8.118;2023-06-10T12:41:58;28.30;77.50
7936;DHT22;4013;49.744;8.118;2023-06-10T12:44:32;28.40;79.10
7936;DHT22;4013;49.744;8.118;2023-06-10T12:47:00;28.40;78.00
7936;DHT22;4013;49.744;8.118;2023-06-10T12:49:27;28.50;73.80
7936;DHT22;4013;49.744;8.118;2023-06-10T12:51:54;28.40;72.50
7936;DHT22;4013;49.744;8.118;2023-06-10T12:54:22;28.40;72.80
7936;DHT22;4013;49.744;8.118;2023-06-10T12:56:49;28.20;71.90
7936;DHT22;4013;49.744;8.118;2023-06-10T12:59:16;28.00;71.90
7936;DHT22;4013;49.744;8.118;2023-06-10T13:01:43;27.90;70.00
7936;DHT22;4013;49.744;8.118;2023-06-10T13:04:10;28.00;65.80
7936;DHT22;4013;49.744;8.118;2023-06-10T13:06:38;28.00;65.80
7936;DHT22;4013;49.744;8.118;2023-06-10T13:09:08;27.90;63.90
7936;DHT22;4013;49.744;8.118;2023-06-10T13:11:36;27.80;66.00
7936;DHT22;4013;49.744;8.118;2023-06-10T13:14:04;27.70;67.00
7936;DHT22;4013;49.744;8.118;2023-06-10T13:16:32;27.50;67.30
7936;DHT22;4013;49.744;8.118;2023-06-10T13:18:59;27.50;67.30
7936;DHT22;4013;49.744;8.118;2023-06-10T13:21:26;27.70;65.60
7936;DHT22;4013;49.744;8.118;2023-06-10T13:23:53;27.80;67.70
7936;DHT22;4013;49.744;8.118;2023-06-10T13:26:20;28.10;66.80
7936;DHT22;4013;49.744;8.118;2023-06-10T13:28:49;28.30;65.60
7936;DHT22;4013;49.744;8.118;2023-06-10T13:31:16;28.50;62.20
7936;DHT22;4013;49.744;8.118;2023-06-10T13:33:43;28.40;61.80
7936;DHT22;4013;49.744;8.118;2023-06-10T13:36:10;28.20;62.10
7936;DHT22;4013;49.744;8.118;2023-06-10T13:38:38;28.10;64.10
7936;DHT22;4013;49.744;8.118;2023-06-10T13:41:05;28.20;62.70
7936;DHT22;4013;49.744;8.118;2023-06-10T13:43:32;28.30;64.10
7936;DHT22;4013;49.744;8.118;2023-06-10T13:46:00;28.50;62.80
7936;DHT22;4013;49.744;8.118;2023-06-10T13:48:27;28.60;62.90
7936;DHT22;4013;49.744;8.118;2023-06-10T13:50:54;28.70;63.60
7936;DHT22;4013;49.744;8.118;2023-06-10T13:53:21;28.70;63.60
7936;DHT22;4013;49.744;8.118;2023-06-10T13:55:48;28.80;61.90
7936;DHT22;4013;49.744;8.118;2023-06-10T13:58:15;28.80;63.00
7936;DHT22;4013;49.744;8.118;2023-06-10T14:00:43;28.70;62.20
7936;DHT22;4013;49.744;8.118;2023-06-10T14:03:11;28.50;62.00
7936;DHT22;4013;49.744;8.118;2023-06-10T14:05:38;28.30;62.80
7936;DHT22;4013;49.744;8.118;2023-06-10T14:08:05;28.20;63.30
7936;DHT22;4013;49.744;8.118;2023-06-10T14:10:33;28.30;63.50
7936;DHT22;4013;49.744;8.118;2023-06-10T14:13:00;28.40;62.80
7936;DHT22;4013;49.744;8.118;2023-06-10T14:15:27;28.50;63.20
7936;DHT22;4013;49.744;8.118;2023-06-10T14:17:54;28.60;63.30
7936;DHT22;4013;49.744;8.118;2023-06-10T14:20:22;28.70;60.80
7936;DHT22;4013;49.744;8.118;2023-06-10T14:22:51;28.80;59.90
7936;DHT22;4013;49.744;8.118;2023-06-10T14:25:18;28.80;56.70
7936;DHT22;4013;49.744;8.118;2023-06-10T14:27:44;28.70;56.20
7936;DHT22;4013;49.744;8.118;2023-06-10T14:30:13;28.60;57.20
7936;DHT22;4013;49.744;8.118;2023-06-10T14:32:40;28.50;57.00
7936;DHT22;4013;49.744;8.118;2023-06-10T14:35:07;28.70;57.80
7936;DHT22;4013;49.744;8.118;2023-06-10T14:37:36;28.70;58.40
7936;DHT22;4013;49.744;8.118;2023-06-10T14:40:04;28.80;58.70
7936;DHT22;4013;49.744;8.118;2023-06-10T14:42:31;28.80;61.20
7936;DHT22;4013;49.744;8.118;2023-06-10T14:44:58;28.90;61.00
7936;DHT22;4013;49.744;8.118;2023-06-10T14:47:25;28.90;61.10
7936;DHT22;4013;49.744;8.118;2023-06-10T14:49:52;29.00;60.50
7936;DHT22;4013;49.744;8.118;2023-06-10T14:52:19;29.00;58.50
7936;DHT22;4013;49.744;8.118;2023-06-10T14:54:48;28.90;60.10
7936;DHT22;4013;49.744;8.118;2023-06-10T14:57:15;29.00;59.10
7936;DHT22;4013;49.744;8.118;2023-06-10T14:59:41;29.10;58.70
7936;DHT22;4013;49.744;8.118;2023-06-10T15:02:08;29.20;56.60
7936;DHT22;4013;49.744;8.118;2023-06-10T15:04:35;29.40;57.30
7936;DHT22;4013;49.744;8.118;2023-06-10T15:07:02;29.40;55.90
7936;DHT22;4013;49.744;8.118;2023-06-10T15:09:29;29.30;55.00
7936;DHT22;4013;49.744;8.118;2023-06-10T15:11:58;29.10;54.50
7936;DHT22;4013;49.744;8.118;2023-06-10T15:14:26;29.10;55.40
7936;DHT22;4013;49.744;8.118;2023-06-10T15:16:53;29.00;55.20
7936;DHT22;4013;49.744;8.118;2023-06-10T15:19:21;29.00;54.70
7936;DHT22;4013;49.744;8.118;2023-06-10T15:21:48;28.90;55.60
7936;DHT22;4013;49.744;8.118;2023-06-10T15:24:15;28.90;55.30
7936;DHT22;4013;49.744;8.118;2023-06-10T15:26:42;28.70;56.20
7936;DHT22;4013;49.744;8.118;2023-06-10T15:29:10;28.70;56.70
7936;DHT22;4013;49.744;8.118;2023-06-10T15:31:38;28.70;56.30
7936;DHT22;4013;49.744;8.118;2023-06-10T15:34:05;28.80;57.00
7936;DHT22;4013;49.744;8.118;2023-06-10T15:36:33;28.80;57.80
7936;DHT22;4013;49.744;8.118;2023-06-10T15:39:03;28.90;57.60
7936;DHT22;4013;49.744;8.118;2023-06-10T15:41:32;28.90;57.50
7936;DHT22;4013;49.744;8.118;2023-06-10T15:43:59;28.90;57.20
7936;DHT22;4013;49.744;8.118;2023-06-10T15:46:27;28.90;57.20
7936;DHT22;4013;49.744;8.118;2023-06-10T15:48:55;28.90;56.80
7936;DHT22;4013;49.744;8.118;2023-06-10T15:51:22;28.90;57.00
7936;DHT22;4013;49.744;8.118;2023-06-10T15:53:49;28.90;58.40
7936;DHT22;4013;49.744;8.118;2023-06-10T15:56:16;28.90;57.20
7936;DHT22;4013;49.744;8.118;2023-06-10T15:58:44;29.00;57.50
7936;DHT22;4013;49.744;8.118;2023-06-10T16:01:11;29.00;56.80
7936;DHT22;4013;49.744;8.118;2023-06-10T16:03:39;28.90;57.20
7936;DHT22;4013;49.744;8.118;2023-06-10T16:06:06;28.70;57.10
7936;DHT22;4013;49.744;8.118;2023-06-10T16:08:33;28.60;58.00